createdAt,value
2016-11-05T00:00:35.956Z,0
2016-11-05T00:01:48.997Z,0
2016-11-05T00:03:02.574Z,0
2016-11-05T00:04:16.129Z,0
2016-11-05T00:05:29.297Z,0
2016-11-05T00:06:42.422Z,0
2016-11-05T00:07:56.001Z,0
2016-11-05T00:09:09.620Z,0
2016-11-05T00:10:22.096Z,0
2016-11-05T00:11:35.602Z,0
2016-11-05T00:12:49.219Z,0
2016-11-05T00:14:02.791Z,0
2016-11-05T00:15:15.772Z,0
2016-11-05T00:16:29.321Z,0
2016-11-05T00:17:42.596Z,0
2016-11-05T00:18:56.235Z,0
2016-11-05T00:20:09.750Z,0
2016-11-05T00:21:22.303Z,0
2016-11-05T00:22:35.578Z,0
2016-11-05T00:23:49.180Z,0
2016-11-05T00:25:02.768Z,0
2016-11-05T00:26:15.850Z,0
2016-11-05T00:27:28.593Z,0
2016-11-05T00:28:42.222Z,0
2016-11-05T00:29:55.826Z,0
2016-11-05T00:31:09.362Z,0
2016-11-05T00:32:22.343Z,0
2016-11-05T00:34:07.007Z,0
2016-11-05T00:35:20.033Z,0
2016-11-05T00:36:33.624Z,0
2016-11-05T00:37:47.422Z,0
2016-11-05T00:39:00.442Z,0
2016-11-05T00:40:13.739Z,0
2016-11-05T00:41:27.269Z,0
2016-11-05T00:42:40.278Z,0
2016-11-05T00:43:52.786Z,0
2016-11-05T00:45:05.796Z,0
2016-11-05T00:46:19.381Z,0
2016-11-05T00:47:33.004Z,0
2016-11-05T00:48:46.728Z,0
2016-11-05T00:49:59.793Z,0
2016-11-05T00:51:12.881Z,0
2016-11-05T00:52:26.822Z,0
2016-11-05T00:53:39.647Z,0
2016-11-05T00:54:52.714Z,0
2016-11-05T00:56:06.253Z,0
2016-11-05T00:57:19.285Z,0
2016-11-05T00:58:32.953Z,0
2016-11-05T00:59:46.565Z,0
2016-11-05T01:00:59.756Z,0
2016-11-05T01:02:13.332Z,0
2016-11-05T01:03:26.427Z,0
2016-11-05T01:04:39.941Z,0
2016-11-05T01:05:53.757Z,0
2016-11-05T01:07:06.800Z,0
2016-11-05T01:08:20.672Z,0
2016-11-05T01:09:34.276Z,0
2016-11-05T01:10:47.590Z,0
2016-11-05T01:12:01.154Z,0
2016-11-05T01:13:14.841Z,0
2016-11-05T01:14:28.372Z,0
2016-11-05T01:15:41.167Z,0
2016-11-05T01:16:54.739Z,0
2016-11-05T01:18:07.775Z,0
2016-11-05T01:19:21.295Z,0
2016-11-05T01:20:34.847Z,0
2016-11-05T01:21:47.904Z,0
2016-11-05T01:23:00.994Z,0
2016-11-05T01:24:14.420Z,0
2016-11-05T01:25:28.106Z,0
2016-11-05T01:26:41.656Z,0
2016-11-05T01:27:54.744Z,0
2016-11-05T01:29:08.061Z,0
2016-11-05T01:30:21.124Z,0
2016-11-05T01:31:34.204Z,0
2016-11-05T01:32:47.823Z,0
2016-11-05T01:34:01.346Z,0
2016-11-05T01:35:14.904Z,0
2016-11-05T01:36:28.595Z,0
2016-11-05T01:37:41.676Z,0
2016-11-05T01:38:55.302Z,0
2016-11-05T01:40:08.884Z,0
2016-11-05T01:42:50.038Z,0
2016-11-05T01:44:03.636Z,0
2016-11-05T01:45:17.442Z,0
2016-11-05T01:46:30.494Z,0
2016-11-05T01:47:44.032Z,0
2016-11-05T01:48:57.663Z,0
2016-11-05T01:50:11.258Z,0
2016-11-05T01:51:24.938Z,0
2016-11-05T01:52:38.580Z,0
2016-11-05T01:53:51.053Z,0
2016-11-05T01:55:04.104Z,0
2016-11-05T01:56:17.743Z,0
2016-11-05T01:57:31.286Z,0
2016-11-05T01:58:44.945Z,0
2016-11-05T02:00:29.097Z,0
2016-11-05T02:01:42.619Z,0
2016-11-05T02:02:56.209Z,0
2016-11-05T02:04:09.217Z,0
2016-11-05T02:05:22.277Z,0
2016-11-05T02:06:35.040Z,0
2016-11-05T02:07:48.133Z,0
2016-11-05T02:09:01.388Z,0
2016-11-05T02:10:14.939Z,0
2016-11-05T02:11:28.489Z,0
2016-11-05T02:12:41.655Z,0
2016-11-05T02:13:55.306Z,0
2016-11-05T02:15:08.859Z,0
2016-11-05T02:16:22.447Z,0
2016-11-05T02:17:34.965Z,0
2016-11-05T02:18:48.612Z,0
2016-11-05T02:20:02.141Z,0
2016-11-05T02:21:15.801Z,0
2016-11-05T02:22:28.869Z,0
2016-11-05T02:23:42.528Z,0
2016-11-05T02:24:55.037Z,0
2016-11-05T02:26:08.104Z,0
2016-11-05T02:27:20.632Z,0
2016-11-05T02:28:33.585Z,0
2016-11-05T02:29:47.469Z,0
2016-11-05T02:31:01.130Z,0
2016-11-05T02:32:14.163Z,0
2016-11-05T02:33:27.470Z,0
2016-11-05T02:34:39.956Z,0
2016-11-05T02:35:53.074Z,0
2016-11-05T02:37:06.167Z,0
2016-11-05T02:38:19.733Z,0
2016-11-05T02:39:32.792Z,0
2016-11-05T02:42:30.071Z,0
2016-11-05T02:43:43.473Z,0
2016-11-05T02:44:57.082Z,0
2016-11-05T02:46:10.143Z,0
2016-11-05T02:47:23.420Z,0
2016-11-05T02:48:36.507Z,0
2016-11-05T02:49:47.930Z,0
2016-11-05T02:51:01.437Z,0
2016-11-05T02:52:14.501Z,0
2016-11-05T02:53:27.022Z,0
2016-11-05T02:54:40.002Z,0
2016-11-05T02:55:53.899Z,0
2016-11-05T02:57:07.273Z,0
2016-11-05T02:58:20.646Z,0
2016-11-05T02:59:34.257Z,0
2016-11-05T03:00:47.868Z,0
2016-11-05T03:02:01.436Z,0
2016-11-05T03:03:15.037Z,0
2016-11-05T03:04:28.579Z,0
2016-11-05T03:05:42.128Z,0
2016-11-05T03:06:55.787Z,0
2016-11-05T03:08:09.318Z,0
2016-11-05T03:09:22.389Z,0
2016-11-05T03:10:36.064Z,0
2016-11-05T03:11:49.661Z,0
2016-11-05T03:13:03.199Z,0
2016-11-05T03:14:16.228Z,0
2016-11-05T03:15:29.982Z,0
2016-11-05T03:16:43.652Z,0
2016-11-05T03:17:57.236Z,0
2016-11-05T03:19:10.787Z,0
2016-11-05T03:20:24.462Z,0
2016-11-05T03:21:38.066Z,0
2016-11-05T03:22:51.400Z,0
2016-11-05T03:24:04.458Z,0
2016-11-05T03:25:18.033Z,0
2016-11-05T03:26:31.675Z,0
2016-11-05T03:27:45.270Z,0
2016-11-05T03:28:58.778Z,0
2016-11-05T03:30:12.380Z,0
2016-11-05T03:31:25.950Z,0
2016-11-05T03:32:39.283Z,0
2016-11-05T03:33:52.936Z,0
2016-11-05T03:35:06.522Z,0
2016-11-05T03:36:19.610Z,0
2016-11-05T03:37:32.711Z,0
2016-11-05T03:38:46.300Z,0
2016-11-05T03:39:59.918Z,0
2016-11-05T03:41:13.185Z,0
2016-11-05T03:42:26.911Z,0
2016-11-05T03:43:39.992Z,0
2016-11-05T03:44:52.990Z,0
2016-11-05T03:46:06.048Z,0
2016-11-05T03:47:19.647Z,0
2016-11-05T03:48:33.247Z,0
2016-11-05T03:49:46.862Z,0
2016-11-05T03:51:00.126Z,0
2016-11-05T03:52:13.777Z,0
2016-11-05T03:53:27.314Z,0
2016-11-05T03:54:40.928Z,0
2016-11-05T03:55:54.513Z,0
2016-11-05T03:57:07.568Z,0
2016-11-05T03:58:21.073Z,0
2016-11-05T03:59:33.581Z,0
2016-11-05T04:00:47.132Z,0
2016-11-05T04:02:00.189Z,0
2016-11-05T04:03:13.268Z,0
2016-11-05T04:04:26.992Z,0
2016-11-05T04:05:40.608Z,0
2016-11-05T04:06:54.279Z,0
2016-11-05T04:08:07.796Z,0
2016-11-05T04:09:21.428Z,0
2016-11-05T04:10:34.991Z,0
2016-11-05T04:11:48.626Z,0
2016-11-05T04:13:02.192Z,0
2016-11-05T04:14:15.789Z,0
2016-11-05T04:15:28.875Z,0
2016-11-05T04:16:41.941Z,0
2016-11-05T04:17:55.443Z,0
2016-11-05T04:19:09.033Z,0
2016-11-05T04:20:22.158Z,0
2016-11-05T04:21:35.365Z,0
2016-11-05T04:22:48.417Z,0
2016-11-05T04:24:01.986Z,0
2016-11-05T04:25:15.524Z,0
2016-11-05T04:26:28.843Z,0
2016-11-05T04:27:41.904Z,0
2016-11-05T04:28:55.508Z,0
2016-11-05T04:30:09.088Z,0
2016-11-05T04:33:06.525Z,0
2016-11-05T04:34:20.069Z,0
2016-11-05T04:35:33.708Z,0
2016-11-05T04:36:47.536Z,0
2016-11-05T04:38:01.186Z,0
2016-11-05T04:39:14.713Z,0
2016-11-05T04:40:28.283Z,0
2016-11-05T04:41:41.877Z,0
2016-11-05T04:42:55.484Z,0
2016-11-05T04:44:09.077Z,0
2016-11-05T04:45:22.745Z,0
2016-11-05T04:46:36.284Z,0
2016-11-05T04:47:48.821Z,0
2016-11-05T04:49:02.118Z,0
2016-11-05T04:50:15.649Z,0
2016-11-05T04:51:29.240Z,0
2016-11-05T04:52:42.275Z,0
2016-11-05T04:53:55.838Z,0
2016-11-05T04:55:09.077Z,0
2016-11-05T04:56:22.177Z,0
2016-11-05T04:57:35.239Z,0
2016-11-05T04:58:48.869Z,0
2016-11-05T05:00:01.632Z,0
2016-11-05T05:01:15.251Z,0
2016-11-05T05:02:28.935Z,0
2016-11-05T05:03:42.452Z,0
2016-11-05T05:04:55.549Z,0
2016-11-05T05:06:09.112Z,0
2016-11-05T05:07:22.093Z,0
2016-11-05T05:08:35.652Z,0
2016-11-05T05:09:49.205Z,0
2016-11-05T05:11:02.553Z,0
2016-11-05T05:12:16.122Z,0
2016-11-05T05:13:28.636Z,0
2016-11-05T05:14:42.257Z,0
2016-11-05T05:15:55.771Z,0
2016-11-05T05:17:09.233Z,0
2016-11-05T05:18:22.813Z,0
2016-11-05T05:19:36.507Z,0
2016-11-05T05:20:49.531Z,0
2016-11-05T05:22:02.489Z,0
2016-11-05T05:23:16.101Z,0
2016-11-05T05:24:29.654Z,0
2016-11-05T05:25:42.709Z,0
2016-11-05T05:26:55.779Z,0
2016-11-05T05:28:09.397Z,0
2016-11-05T05:29:22.476Z,0
2016-11-05T05:30:36.040Z,0
2016-11-05T05:31:49.608Z,0
2016-11-05T05:33:02.627Z,0
2016-11-05T05:34:15.614Z,0
2016-11-05T05:35:29.283Z,0
2016-11-05T05:36:42.370Z,0
2016-11-05T05:37:55.934Z,0
2016-11-05T05:39:08.695Z,0
2016-11-05T05:40:22.072Z,0
2016-11-05T05:41:35.664Z,0
2016-11-05T05:42:49.164Z,0
2016-11-05T05:44:02.777Z,0
2016-11-05T05:45:16.330Z,0
2016-11-05T05:46:29.670Z,0
2016-11-05T05:47:42.753Z,0
2016-11-05T05:48:56.392Z,0
2016-11-05T05:50:09.438Z,0
2016-11-05T05:51:22.942Z,0
2016-11-05T05:52:36.011Z,0
2016-11-05T05:53:49.525Z,0
2016-11-05T05:55:03.078Z,0
2016-11-05T05:56:16.594Z,0
2016-11-05T05:57:30.183Z,0
2016-11-05T05:58:43.258Z,0
2016-11-05T05:59:56.735Z,0
2016-11-05T06:01:09.293Z,0
2016-11-05T06:02:22.903Z,0
2016-11-05T06:03:36.541Z,0
2016-11-05T06:04:49.867Z,0
2016-11-05T06:06:02.902Z,0
2016-11-05T06:07:16.565Z,0
2016-11-05T06:08:30.012Z,0
2016-11-05T06:09:43.668Z,0
2016-11-05T06:10:57.308Z,0
2016-11-05T06:12:10.950Z,0
2016-11-05T06:13:24.665Z,0
2016-11-05T06:14:37.932Z,0
2016-11-05T06:15:50.961Z,0
2016-11-05T06:17:04.539Z,0
2016-11-05T06:18:18.122Z,0
2016-11-05T06:19:31.790Z,0
2016-11-05T06:20:45.369Z,0
2016-11-05T06:21:57.792Z,0
2016-11-05T06:23:10.817Z,0
2016-11-05T06:24:24.372Z,0
2016-11-05T06:25:37.387Z,0
2016-11-05T06:26:50.965Z,0
2016-11-05T06:28:03.420Z,0
2016-11-05T06:29:16.977Z,0
2016-11-05T06:30:29.969Z,0
2016-11-05T06:31:43.063Z,0
2016-11-05T06:32:56.872Z,0
2016-11-05T06:34:09.912Z,0
2016-11-05T06:35:22.408Z,0
2016-11-05T06:36:35.992Z,0
2016-11-05T06:37:49.123Z,0
2016-11-05T06:39:02.226Z,0
2016-11-05T06:40:15.332Z,0
2016-11-05T06:41:28.972Z,0
2016-11-05T06:42:42.056Z,0
2016-11-05T06:43:55.619Z,0
2016-11-05T06:45:08.790Z,0
2016-11-05T06:46:22.032Z,0
2016-11-05T06:47:35.629Z,0
2016-11-05T06:48:49.290Z,0
2016-11-05T06:50:02.635Z,0
2016-11-05T06:51:16.201Z,0
2016-11-05T06:52:28.434Z,0
2016-11-05T06:53:42.037Z,0
2016-11-05T06:54:55.628Z,0
2016-11-05T06:56:09.216Z,0
2016-11-05T06:57:22.547Z,0
2016-11-05T06:58:36.137Z,0
2016-11-05T06:59:49.768Z,0
2016-11-05T07:01:02.759Z,0
2016-11-05T07:02:15.795Z,0
2016-11-05T07:03:29.363Z,0
2016-11-05T07:04:43.006Z,0
2016-11-05T07:05:56.507Z,0
2016-11-05T07:07:09.557Z,0
2016-11-05T07:08:22.882Z,0
2016-11-05T07:09:36.384Z,0
2016-11-05T07:10:49.455Z,0
2016-11-05T07:12:03.115Z,0
2016-11-05T07:13:16.704Z,0
2016-11-05T07:14:30.282Z,0
2016-11-05T07:15:43.887Z,0
2016-11-05T07:16:56.922Z,0
2016-11-05T07:18:10.448Z,0
2016-11-05T07:19:24.003Z,0
2016-11-05T07:20:37.601Z,0
2016-11-05T07:21:50.748Z,0
2016-11-05T07:23:04.336Z,0
2016-11-05T07:24:17.912Z,0
2016-11-05T07:25:30.931Z,0
2016-11-05T07:26:44.659Z,0
2016-11-05T07:27:57.686Z,0
2016-11-05T07:29:10.717Z,0
2016-11-05T07:30:23.745Z,0
2016-11-05T07:31:36.859Z,0
2016-11-05T07:32:50.424Z,0
2016-11-05T07:34:03.441Z,0
2016-11-05T07:35:16.954Z,0
2016-11-05T07:36:29.497Z,0
2016-11-05T07:37:43.077Z,0
2016-11-05T07:38:55.610Z,0
2016-11-05T07:40:08.683Z,0
2016-11-05T07:41:22.276Z,0
2016-11-05T07:42:35.933Z,0
2016-11-05T07:43:48.974Z,0
2016-11-05T07:45:02.543Z,0
2016-11-05T07:46:16.116Z,0
2016-11-05T07:47:29.476Z,0
2016-11-05T07:49:14.201Z,0
2016-11-05T07:50:27.743Z,0
2016-11-05T07:51:41.392Z,0
2016-11-05T07:52:54.480Z,0
2016-11-05T07:54:08.051Z,0
2016-11-05T07:55:21.685Z,0
2016-11-05T07:56:35.270Z,0
2016-11-05T07:57:48.900Z,0
2016-11-05T07:59:02.532Z,0
2016-11-05T08:00:16.137Z,0
2016-11-05T08:01:29.146Z,0
2016-11-05T08:02:42.217Z,0
2016-11-05T08:03:55.741Z,0
2016-11-05T08:05:09.396Z,0
2016-11-05T08:06:23.165Z,0
2016-11-05T08:07:36.747Z,0
2016-11-05T08:08:50.327Z,0
2016-11-05T08:10:03.403Z,0
2016-11-05T08:11:17.072Z,0
2016-11-05T08:12:30.623Z,0
2016-11-05T08:13:44.194Z,0
2016-11-05T08:14:57.765Z,0
2016-11-05T08:16:11.334Z,0
2016-11-05T08:17:24.856Z,0
2016-11-05T08:18:38.438Z,0
2016-11-05T08:19:51.430Z,0
2016-11-05T08:21:04.433Z,0
2016-11-05T08:22:17.626Z,0
2016-11-05T08:23:31.271Z,0
2016-11-05T08:24:44.861Z,0
2016-11-05T08:25:58.470Z,0
2016-11-05T08:27:12.064Z,0
2016-11-05T08:28:24.856Z,0
2016-11-05T08:29:38.393Z,0
2016-11-05T08:30:52.046Z,0
2016-11-05T08:32:05.587Z,0
2016-11-05T08:33:19.207Z,0
2016-11-05T08:34:32.817Z,0
2016-11-05T08:35:45.802Z,0
2016-11-05T08:36:59.407Z,0
2016-11-05T08:38:13.013Z,0
2016-11-05T08:39:26.620Z,0
2016-11-05T08:40:39.659Z,0
2016-11-05T08:41:52.716Z,0
2016-11-05T08:43:05.767Z,0
2016-11-05T08:44:18.009Z,0
2016-11-05T08:45:31.569Z,0
2016-11-05T08:46:45.320Z,0
2016-11-05T08:47:58.905Z,0
2016-11-05T08:49:12.604Z,0
2016-11-05T08:50:26.168Z,5
2016-11-05T08:51:39.708Z,5
2016-11-05T08:52:53.189Z,5
2016-11-05T08:54:06.215Z,5
2016-11-05T08:55:19.818Z,5
2016-11-05T08:56:33.461Z,5
2016-11-05T08:57:47.067Z,5
2016-11-05T08:59:00.706Z,5
2016-11-05T09:00:14.316Z,5
2016-11-05T09:01:27.911Z,5
2016-11-05T09:02:41.416Z,5
2016-11-05T09:03:55.021Z,5
2016-11-05T09:05:08.074Z,5
2016-11-05T09:06:21.731Z,5
2016-11-05T09:07:35.292Z,5
2016-11-05T09:08:48.872Z,5
2016-11-05T09:10:02.430Z,5
2016-11-05T09:11:15.948Z,5
2016-11-05T09:12:29.582Z,5
2016-11-05T09:13:42.690Z,5
2016-11-05T09:14:55.247Z,5
2016-11-05T09:16:08.810Z,10
2016-11-05T09:17:22.387Z,10
2016-11-05T09:18:36.019Z,10
2016-11-05T09:19:49.088Z,10
2016-11-05T09:21:02.538Z,10
2016-11-05T09:22:15.588Z,10
2016-11-05T09:23:29.207Z,10
2016-11-05T09:24:42.761Z,10
2016-11-05T09:25:56.415Z,10
2016-11-05T09:27:10.021Z,10
2016-11-05T09:28:23.048Z,10
2016-11-05T09:29:36.145Z,10
2016-11-05T09:30:49.667Z,10
2016-11-05T09:32:03.235Z,10
2016-11-05T09:33:16.750Z,10
2016-11-05T09:34:30.264Z,10
2016-11-05T09:35:43.626Z,10
2016-11-05T09:36:57.166Z,10
2016-11-05T09:38:10.741Z,10
2016-11-05T09:39:24.337Z,10
2016-11-05T09:40:37.377Z,10
2016-11-05T09:41:50.535Z,10
2016-11-05T09:43:04.167Z,10
2016-11-05T09:44:17.817Z,10
2016-11-05T09:45:31.470Z,15
2016-11-05T09:46:44.709Z,15
2016-11-05T09:47:57.993Z,15
2016-11-05T09:49:11.590Z,15
2016-11-05T09:50:25.187Z,15
2016-11-05T09:51:38.260Z,15
2016-11-05T09:54:36.613Z,15
2016-11-05T09:55:50.204Z,15
2016-11-05T09:57:03.624Z,15
2016-11-05T09:58:16.656Z,15
2016-11-05T09:59:30.266Z,15
2016-11-05T10:00:43.392Z,15
2016-11-05T10:01:57.213Z,15
2016-11-05T10:03:10.769Z,15
2016-11-05T10:04:23.822Z,15
2016-11-05T10:05:36.829Z,20
2016-11-05T10:06:50.389Z,20
2016-11-05T10:08:04.008Z,20
2016-11-05T10:09:17.866Z,25
2016-11-05T10:10:31.475Z,25
2016-11-05T10:11:45.000Z,25
2016-11-05T10:12:58.598Z,30
2016-11-05T10:14:11.584Z,30
2016-11-05T10:15:25.208Z,25
2016-11-05T10:16:38.317Z,30
2016-11-05T10:17:51.903Z,25
2016-11-05T10:19:05.523Z,30
2016-11-05T10:20:19.135Z,30
2016-11-05T10:21:32.249Z,30
2016-11-05T10:22:45.784Z,30
2016-11-05T10:23:59.288Z,30
2016-11-05T10:25:12.931Z,30
2016-11-05T10:26:26.493Z,30
2016-11-05T10:27:39.554Z,30
2016-11-05T10:28:52.601Z,30
2016-11-05T10:30:06.121Z,30
2016-11-05T10:31:19.713Z,30
2016-11-05T10:32:32.716Z,35
2016-11-05T10:33:45.701Z,35
2016-11-05T10:34:59.281Z,30
2016-11-05T10:36:12.328Z,30
2016-11-05T10:37:25.909Z,30
2016-11-05T10:38:39.229Z,35
2016-11-05T10:39:51.819Z,35
2016-11-05T10:41:05.381Z,35
2016-11-05T10:42:18.929Z,35
2016-11-05T10:43:32.176Z,40
2016-11-05T10:44:44.116Z,35
2016-11-05T10:45:57.704Z,35
2016-11-05T10:47:10.786Z,35
2016-11-05T10:48:24.420Z,35
2016-11-05T10:49:37.953Z,40
2016-11-05T10:50:51.103Z,35
2016-11-05T10:52:04.630Z,35
2016-11-05T10:53:17.734Z,35
2016-11-05T10:54:30.207Z,35
2016-11-05T10:55:43.795Z,35
2016-11-05T10:56:57.376Z,35
2016-11-05T10:58:10.989Z,40
2016-11-05T10:59:24.039Z,40
2016-11-05T11:00:36.897Z,40
2016-11-05T11:01:50.449Z,40
2016-11-05T11:03:03.521Z,40
2016-11-05T11:04:17.118Z,40
2016-11-05T11:05:30.216Z,40
2016-11-05T11:06:43.731Z,40
2016-11-05T11:07:56.819Z,35
2016-11-05T11:09:10.140Z,40
2016-11-05T11:10:23.201Z,40
2016-11-05T11:11:35.488Z,40
2016-11-05T11:12:48.581Z,35
2016-11-05T11:14:02.275Z,40
2016-11-05T11:15:15.296Z,40
2016-11-05T11:16:28.853Z,35
2016-11-05T11:17:42.470Z,40
2016-11-05T11:18:56.055Z,40
2016-11-05T11:20:09.381Z,35
2016-11-05T11:21:22.389Z,35
2016-11-05T11:22:35.692Z,35
2016-11-05T11:23:49.391Z,40
2016-11-05T11:25:02.480Z,40
2016-11-05T11:26:16.003Z,45
2016-11-05T11:27:29.541Z,45
2016-11-05T11:28:42.580Z,45
2016-11-05T11:29:56.252Z,45
2016-11-05T11:31:09.822Z,45
2016-11-05T11:32:22.857Z,45
2016-11-05T11:33:36.420Z,45
2016-11-05T11:35:21.126Z,45
2016-11-05T11:36:34.736Z,50
2016-11-05T11:37:48.056Z,50
2016-11-05T11:39:01.636Z,50
2016-11-05T11:40:14.393Z,55
2016-11-05T11:41:27.957Z,50
2016-11-05T11:42:41.596Z,50
2016-11-05T11:43:55.239Z,60
2016-11-05T11:45:08.831Z,60
2016-11-05T11:46:22.481Z,55
2016-11-05T11:47:36.075Z,50
2016-11-05T11:48:49.682Z,50
2016-11-05T11:50:03.368Z,50
2016-11-05T11:51:16.754Z,55
2016-11-05T11:52:30.341Z,55
2016-11-05T11:53:43.342Z,60
2016-11-05T11:54:57.020Z,60
2016-11-05T11:56:10.641Z,55
2016-11-05T11:57:24.278Z,60
2016-11-05T11:58:36.777Z,55
2016-11-05T11:59:50.364Z,60
2016-11-05T12:01:03.681Z,60
2016-11-05T12:02:17.002Z,60
2016-11-05T12:03:30.650Z,60
2016-11-05T12:04:44.220Z,60
2016-11-05T12:05:57.730Z,50
2016-11-05T12:07:11.328Z,50
2016-11-05T12:08:25.363Z,45
2016-11-05T12:09:38.988Z,45
2016-11-05T12:10:52.017Z,50
2016-11-05T12:12:05.075Z,50
2016-11-05T12:13:18.680Z,60
2016-11-05T12:14:32.258Z,55
2016-11-05T12:15:45.547Z,55
2016-11-05T12:16:58.300Z,55
2016-11-05T12:18:11.834Z,55
2016-11-05T12:19:24.860Z,55
2016-11-05T12:20:38.524Z,55
2016-11-05T12:21:52.030Z,55
2016-11-05T12:23:05.691Z,55
2016-11-05T12:24:19.271Z,55
2016-11-05T12:27:17.489Z,55
2016-11-05T12:28:30.498Z,55
2016-11-05T12:29:44.120Z,55
2016-11-05T12:30:57.622Z,55
2016-11-05T12:32:11.154Z,50
2016-11-05T12:33:24.705Z,50
2016-11-05T12:34:38.328Z,55
2016-11-05T12:35:51.849Z,50
2016-11-05T12:37:04.941Z,50
2016-11-05T12:38:18.551Z,60
2016-11-05T12:39:32.114Z,65
2016-11-05T12:40:45.606Z,60
2016-11-05T12:41:58.596Z,65
2016-11-05T12:43:11.675Z,70
2016-11-05T12:44:25.242Z,65
2016-11-05T12:45:38.863Z,65
2016-11-05T12:46:52.482Z,55
2016-11-05T12:48:37.180Z,60
2016-11-05T12:49:51.081Z,55
2016-11-05T12:51:04.096Z,50
2016-11-05T12:52:17.448Z,45
2016-11-05T12:53:30.499Z,40
2016-11-05T12:54:43.515Z,45
2016-11-05T12:55:57.349Z,45
2016-11-05T12:57:10.963Z,45
2016-11-05T12:58:24.551Z,55
2016-11-05T12:59:38.194Z,80
2016-11-05T13:00:51.781Z,80
2016-11-05T13:02:04.887Z,85
2016-11-05T13:03:17.937Z,80
2016-11-05T13:04:31.563Z,95
2016-11-05T13:05:45.066Z,95
2016-11-05T13:06:58.185Z,85
2016-11-05T13:08:11.222Z,85
2016-11-05T13:09:24.845Z,85
2016-11-05T13:10:38.465Z,75
2016-11-05T13:11:52.082Z,100
2016-11-05T13:13:05.672Z,80
2016-11-05T13:14:19.379Z,85
2016-11-05T13:15:32.496Z,90
2016-11-05T13:16:45.568Z,135
2016-11-05T13:17:59.065Z,85
2016-11-05T13:19:12.587Z,95
2016-11-05T13:20:26.104Z,90
2016-11-05T13:21:39.381Z,80
2016-11-05T13:22:52.620Z,80
2016-11-05T13:24:05.119Z,80
2016-11-05T13:25:18.479Z,85
2016-11-05T13:26:32.041Z,85
2016-11-05T13:27:45.561Z,80
2016-11-05T13:28:59.131Z,80
2016-11-05T13:30:12.103Z,90
2016-11-05T13:31:24.674Z,115
2016-11-05T13:32:38.247Z,120
2016-11-05T13:33:51.875Z,115
2016-11-05T13:35:05.532Z,95
2016-11-05T13:36:19.029Z,85
2016-11-05T13:37:32.644Z,80
2016-11-05T13:38:46.237Z,85
2016-11-05T13:39:59.288Z,80
2016-11-05T13:41:12.316Z,75
2016-11-05T13:42:25.448Z,70
2016-11-05T13:43:39.058Z,60
2016-11-05T13:44:52.126Z,55
2016-11-05T13:46:05.214Z,50
2016-11-05T13:47:18.292Z,50
2016-11-05T13:48:31.925Z,50
2016-11-05T13:49:44.980Z,55
2016-11-05T13:50:57.030Z,65
2016-11-05T13:52:10.609Z,75
2016-11-05T13:53:23.634Z,70
2016-11-05T13:55:08.288Z,90
2016-11-05T13:56:21.382Z,100
2016-11-05T13:57:34.980Z,85
2016-11-05T13:58:48.576Z,85
2016-11-05T14:00:02.189Z,90
2016-11-05T14:01:15.749Z,85
2016-11-05T14:02:29.310Z,85
2016-11-05T14:03:43.036Z,125
2016-11-05T14:04:56.596Z,155
2016-11-05T14:06:10.044Z,130
2016-11-05T14:07:23.131Z,165
2016-11-05T14:08:36.808Z,100
2016-11-05T14:09:50.377Z,85
2016-11-05T14:11:03.971Z,90
2016-11-05T14:12:16.969Z,80
2016-11-05T14:13:30.584Z,85
2016-11-05T14:15:15.249Z,85
2016-11-05T14:16:28.941Z,90
2016-11-05T14:17:42.552Z,85
2016-11-05T14:18:55.827Z,80
2016-11-05T14:20:09.358Z,50
2016-11-05T14:21:22.869Z,40
2016-11-05T14:22:36.546Z,45
2016-11-05T14:23:49.863Z,65
2016-11-05T14:25:03.134Z,70
2016-11-05T14:26:16.443Z,85
2016-11-05T14:27:30.426Z,90
2016-11-05T14:28:43.545Z,85
2016-11-05T14:29:57.320Z,80
2016-11-05T14:31:10.868Z,80
2016-11-05T14:32:23.723Z,85
2016-11-05T14:33:36.823Z,80
2016-11-05T14:34:50.382Z,65
2016-11-05T14:36:03.997Z,85
2016-11-05T14:37:17.068Z,90
2016-11-05T14:38:30.639Z,80
2016-11-05T14:39:44.193Z,70
2016-11-05T14:40:57.280Z,75
2016-11-05T14:42:10.846Z,70
2016-11-05T14:43:24.393Z,80
2016-11-05T14:44:37.951Z,85
2016-11-05T14:45:51.647Z,80
2016-11-05T14:47:04.984Z,70
2016-11-05T14:48:18.567Z,55
2016-11-05T14:49:32.263Z,60
2016-11-05T14:50:45.901Z,60
2016-11-05T14:51:58.686Z,50
2016-11-05T14:53:12.382Z,45
2016-11-05T14:54:25.413Z,40
2016-11-05T14:55:39.031Z,50
2016-11-05T14:57:23.743Z,65
2016-11-05T14:58:36.793Z,75
2016-11-05T14:59:50.368Z,85
2016-11-05T15:01:03.985Z,85
2016-11-05T15:02:17.542Z,85
2016-11-05T15:03:30.624Z,85
2016-11-05T15:04:44.221Z,75
2016-11-05T15:05:57.274Z,105
2016-11-05T15:07:10.381Z,95
2016-11-05T15:08:24.071Z,90
2016-11-05T15:09:37.111Z,135
2016-11-05T15:10:49.930Z,95
2016-11-05T15:12:03.500Z,80
2016-11-05T15:13:17.104Z,70
2016-11-05T15:14:30.646Z,75
2016-11-05T15:15:44.283Z,70
2016-11-05T15:16:57.870Z,60
2016-11-05T15:18:10.633Z,50
2016-11-05T15:19:24.362Z,55
2016-11-05T15:20:37.434Z,65
2016-11-05T15:21:51.031Z,75
2016-11-05T15:23:04.691Z,85
2016-11-05T15:24:18.322Z,70
2016-11-05T15:25:31.969Z,130
2016-11-05T15:26:44.487Z,80
2016-11-05T15:27:58.040Z,80
2016-11-05T15:29:11.638Z,65
2016-11-05T15:30:25.189Z,70
2016-11-05T15:31:38.896Z,80
2016-11-05T15:32:51.956Z,95
2016-11-05T15:34:05.874Z,85
2016-11-05T15:35:18.879Z,70
2016-11-05T15:36:31.920Z,85
2016-11-05T15:37:45.573Z,80
2016-11-05T15:38:59.126Z,85
2016-11-05T15:40:12.787Z,60
2016-11-05T15:41:26.458Z,60
2016-11-05T15:42:40.003Z,55
2016-11-05T15:43:53.645Z,60
2016-11-05T15:45:07.153Z,70
2016-11-05T15:46:20.726Z,60
2016-11-05T15:47:34.351Z,65
2016-11-05T15:48:48.116Z,80
2016-11-05T15:50:01.699Z,60
2016-11-05T15:51:15.013Z,60
2016-11-05T15:52:28.064Z,50
2016-11-05T15:53:41.327Z,50
2016-11-05T15:54:54.948Z,45
2016-11-05T15:56:08.039Z,45
2016-11-05T15:57:19.985Z,45
2016-11-05T15:58:33.365Z,45
2016-11-05T15:59:46.941Z,45
2016-11-05T16:01:00.490Z,40
2016-11-05T16:02:14.021Z,40
2016-11-05T16:03:27.035Z,40
2016-11-05T16:04:40.619Z,45
2016-11-05T16:05:53.726Z,45
2016-11-05T16:07:06.827Z,50
2016-11-05T16:08:20.516Z,55
2016-11-05T16:09:34.052Z,45
2016-11-05T16:10:47.977Z,45
2016-11-05T16:12:01.077Z,45
2016-11-05T16:13:14.656Z,45
2016-11-05T16:14:28.247Z,45
2016-11-05T16:15:41.319Z,40
2016-11-05T16:16:54.417Z,35
2016-11-05T16:18:08.037Z,30
2016-11-05T16:19:21.123Z,30
2016-11-05T16:20:34.741Z,30
2016-11-05T16:21:48.270Z,35
2016-11-05T16:23:01.871Z,35
2016-11-05T16:24:15.479Z,30
2016-11-05T16:25:28.020Z,25
2016-11-05T16:26:41.076Z,20
2016-11-05T16:27:54.401Z,20
2016-11-05T16:29:07.439Z,20
2016-11-05T16:30:21.140Z,20
2016-11-05T16:31:34.255Z,20
2016-11-05T16:32:48.005Z,20
2016-11-05T16:34:01.624Z,20
2016-11-05T16:35:15.166Z,20
2016-11-05T16:36:28.719Z,20
2016-11-05T16:37:42.373Z,20
2016-11-05T16:38:55.448Z,20
2016-11-05T16:40:08.540Z,25
2016-11-05T16:41:21.578Z,25
2016-11-05T16:42:34.686Z,25
2016-11-05T16:43:48.352Z,25
2016-11-05T16:45:01.909Z,25
2016-11-05T16:46:14.085Z,25
2016-11-05T16:47:27.669Z,25
2016-11-05T16:48:40.159Z,25
2016-11-05T16:49:53.236Z,25
2016-11-05T16:51:05.796Z,25
2016-11-05T16:52:19.350Z,25
2016-11-05T16:53:32.979Z,25
2016-11-05T16:54:46.551Z,20
2016-11-05T16:56:00.530Z,20
2016-11-05T16:57:14.114Z,20
2016-11-05T16:58:27.752Z,25
2016-11-05T16:59:40.804Z,25
2016-11-05T17:00:53.842Z,25
2016-11-05T17:02:06.831Z,20
2016-11-05T17:03:19.955Z,20
2016-11-05T17:04:32.392Z,20
2016-11-05T17:05:45.525Z,20
2016-11-05T17:06:59.071Z,20
2016-11-05T17:08:12.647Z,20
2016-11-05T17:09:26.266Z,20
2016-11-05T17:10:39.813Z,20
2016-11-05T17:11:53.130Z,20
2016-11-05T17:13:06.201Z,20
2016-11-05T17:14:19.433Z,20
2016-11-05T17:15:32.811Z,20
2016-11-05T17:16:45.833Z,25
2016-11-05T17:17:58.847Z,25
2016-11-05T17:19:12.525Z,20
2016-11-05T17:20:25.646Z,25
2016-11-05T17:21:39.198Z,20
2016-11-05T17:22:51.969Z,20
2016-11-05T17:24:05.000Z,20
2016-11-05T17:25:18.566Z,20
2016-11-05T17:26:31.713Z,20
2016-11-05T17:27:45.254Z,20
2016-11-05T17:28:58.854Z,20
2016-11-05T17:30:12.410Z,20
2016-11-05T17:31:25.456Z,25
2016-11-05T17:32:37.765Z,25
2016-11-05T17:33:51.043Z,25
2016-11-05T17:35:04.815Z,25
2016-11-05T17:36:18.471Z,25
2016-11-05T17:37:31.588Z,20
2016-11-05T17:38:45.157Z,20
2016-11-05T17:39:58.702Z,20
2016-11-05T17:41:11.703Z,20
2016-11-05T17:42:25.241Z,20
2016-11-05T17:43:37.776Z,20
2016-11-05T17:44:51.297Z,20
2016-11-05T17:46:04.858Z,20
2016-11-05T17:47:18.168Z,20
2016-11-05T17:48:31.291Z,15
2016-11-05T17:49:45.153Z,15
2016-11-05T17:50:58.178Z,15
2016-11-05T17:52:11.230Z,15
2016-11-05T17:53:24.272Z,20
2016-11-05T17:54:37.919Z,20
2016-11-05T17:55:50.423Z,20
2016-11-05T17:57:03.791Z,20
2016-11-05T17:58:16.867Z,20